Metairie, LA (70033)

10:10 PM CDT on September 14, 2014 (GMT -0500)
DeSoto | Change Station
CLOSE
Current Station
Personal Weather Station
Location: Metairie, LA
Elevation: 7 ft
Nearby Weather Stations

Elev 7 ft 29.98 °N, 90.22 °W | Updated 9 seconds ago

Scattered Clouds
Scattered Clouds
81.3 °F
Feels Like 89 °F
N
0.0
Wind Variable Wind from North
Gusts 0.7 mph

Today
High -- | Low -- °F
--% Chance of Precip.
Yesterday
High -- | Low -- °F
Precip. -- in
6:44 AM 7:07 PM
Waning Gibbous, 60% visible
Pressure 30.10 in
Visibility 10.0 miles
Clouds Few 3000 ft
Scattered Clouds 25000 ft
Heat Index 89 °F
Dew Point 77 °F
Humidity 87%
Rainfall 0.00 in
Snow Depth Not available.
UV 0.0 out of 12
Pollen 9.40 out of 12
Ozone Good
PM2.5 Good
Flu Activity Not available.
METAR KMSY 150253Z 10003KT 10SM FEW030 SCT250 28/23 A3009 RMK AO2 SLP191 T02830233 51014

More Conditions Fewer Conditions

Pressure 30.10 in
Visibility 10.0 miles
Clouds Few 3000 ft
Scattered Clouds 25000 ft
Heat Index 89 °F
Dew Point 77 °F
Humidity 87%
Rainfall 0.00 in
Snow Depth Not available.
UV 0.0 out of 12
Pollen 9.40 out of 12
Ozone Good
PM2.5 Good
Flu Activity Not available.
METAR KMSY 150253Z 10003KT 10SM FEW030 SCT250 28/23 A3009 RMK AO2 SLP191 T02830233 51014

More Conditions Fewer Conditions

10-Day Weather Forecast

Almanac

Astronomy

Sep. 14, 2014 Rise Set
Actual Time 6:44 AM CDT 7:07 PM CDT
Civil Twilight 6:20 AM CDT 7:31 PM CDT
Nautical Twilight 5:52 AM CDT 7:59 PM CDT
Astronomical Twilight 5:24 AM CDT 8:27 PM CDT
Moon 11:24 PM CDT (9/14) 12:26 PM CDT (9/14)
Length of Visible Light 13h 10m
Length of Day
12h 22m
Tomorrow will be 1m 47s shorter.
Waning Gibbous, 60% of the Moon is Illuminated
Today
Waning Gibbous
Sep 15
Last Quarter
Sep 24
New
Oct 1
First Quarter
Oct 8
Full

Today's Extremes

State Highs State Lows

Community

WunderPhotos

Upload Photos

1,753,390 photos uploaded!

Nearby

Air Quality

  Air Quality AQ Index Pollutant
Yesterday Good
PM2.5
Yesterday Good
OZONE
Current Good
PM2.5
Current Good
OZONE
Sunday Moderate
PM2.5
Sunday Good
OZONE
Monday Moderate
PM2.5
Monday Good
OZONE
Tuesday Moderate
PM2.5
Tuesday Good
OZONE

Snow Depth

Station Depth Elevation
No new snow has been reported.

Earthquake Activity

City Distance Mag. Time & Date
No recent earthquake activity has been reported nearby.
Minimum magnitude displayed is 2.5.

Coastal Water Temperatures

Place Temperature
New Canal, LA 82.9 °F
Shell Beach, LA 80.1 °F
Bayou Gauche, LA 86.0 °F

Nearby Weather Stations